Strona główna
METAR-TAF:

METAR-TAF

Lotnisko :

Châteaudun, Francja

Szerokość geograficzna: 48-03N, Długość geograficzna: 001-23E, wysokość: 134 m

Aktualna obserwacja pogody

Raport powstał 22 minut temu, godzina 14:30 UTC
Wiatr 4 kt od południe, zmienny między południowo-południowy wschód i zachód
Temperatura 32°C
Wilgotność 29%
Ciśnienie 1017 hPa
Widzialność 10 km lub więcej
Brak chmur poniżej 1500 m i brak chmur cumulonimbus

METAR: LFOC 241430Z AUTO 19004KT 150V280 CAVOK 32/12 Q1017

czas: 16:52 (14:52 UTC)

Prognoza

Raport powstał 30 godziny i 52 minut temu, godzina 08:00 UTC
Prognoza ważna od 23 godzina 09 UTC do 24 godzina 09 UTC
Wiatr 10 kt od wschodnio-północny wschód
Widzialność 10 km lub więcej
Brak chmur poniżej 1500 m i brak chmur cumulonimbus

TAF: LFOC 230800Z 2309/2409 06010KT CAVOK

Obserwacja i prognoza pogody dla ponad 4000 lotnisk (raport METAR i TAF).

Dostępne stacje oznaczono żółtymi i czerwonymi punktami na mapie.

Najedź kursorem aby zobaczyć nazwę stacji.

Kliknij aby zobaczyć obserwacje i prognozy pogody.

Aby zmienić mapę: kliknij na zielony przycisk z czarnym krzyżykiem, aby powiększyć; na zielony przycisk z myślnikiem, aby pomniejszyć; na zielone strzałki, aby przejść do map sąsiednich.


METAR-TAF: